Time;durP1;ratioP1;P1;durP2;ratioP2;P2;SDS_P1;SDS_P2;PMS_P1;PMS_P2;Temp;Humidity;BMP_temperature;BMP_pressure;BME280_temperature;BME280_humidity;BME280_pressure;Samples;Min_cycle;Max_cycle;Signal;HPM_P1;HPM_P2
2023/04/01 00:01:18;;;;;;;3.70;1.67;;;;;;;9.17;100.00;98729.92;5039891;56;1136801;-78
2023/04/01 00:06:24;;;;;;;2.07;1.90;;;;;;;9.15;100.00;98734.05;5074022;55;1136724;-76
2023/04/01 00:11:29;;;;;;;2.70;2.00;;;;;;;9.08;100.00;98720.30;5015709;57;1136780;-77
2023/04/01 00:16:35;;;;;;;2.45;2.15;;;;;;;9.12;100.00;98730.40;5069956;55;1136665;-77
2023/04/01 00:21:41;;;;;;;5.27;2.13;;;;;;;9.13;100.00;98726.78;5207010;55;1136613;-77
2023/04/01 00:26:47;;;;;;;2.70;2.50;;;;;;;9.11;100.00;98729.23;5152154;55;1136551;-79
2023/04/01 00:31:53;;;;;;;3.57;3.27;;;;;;;9.10;100.00;98723.13;5020334;56;1136860;-79
2023/04/01 00:36:59;;;;;;;3.00;2.80;;;;;;;9.04;100.00;98713.67;5035467;57;1136811;-77
2023/04/01 00:42:05;;;;;;;3.87;2.93;;;;;;;9.03;100.00;98720.75;5034068;56;1136857;-79
2023/04/01 00:47:12;;;;;;;3.27;3.07;;;;;;;9.03;100.00;98719.43;5085504;55;1136857;-77
2023/04/01 00:52:22;;;;;;;2.67;2.47;;;;;;;9.03;100.00;98718.11;5120549;55;1136956;-78
2023/04/01 00:57:33;;;;;;;3.27;3.03;;;;;;;9.05;100.00;98714.84;5144409;55;1136839;-78
2023/04/01 01:02:39;;;;;;;3.63;3.33;;;;;;;9.06;100.00;98719.13;5182910;55;1136769;-80
2023/04/01 01:08:07;;;;;;;3.00;2.80;;;;;;;9.05;100.00;98713.52;5042446;56;1136679;-77
2023/04/01 01:13:35;;;;;;;3.20;2.90;;;;;;;9.04;100.00;98712.35;5099435;55;1136977;-78
2023/04/01 01:19:18;;;;;;;3.35;3.10;;;;;;;9.01;100.00;98710.84;5123216;55;1136915;-78
2023/04/01 01:24:53;;;;;;;3.37;3.13;;;;;;;8.91;100.00;98692.15;5185752;55;1136734;-78
2023/04/01 01:30:12;;;;;;;3.30;3.00;;;;;;;8.97;100.00;98701.61;5124932;55;1136834;-77
2023/04/01 01:35:35;;;;;;;4.40;4.00;;;;;;;8.96;100.00;98702.59;5113381;55;1136912;-77
2023/04/01 01:40:46;;;;;;;6.40;3.58;;;;;;;8.94;100.00;98701.08;5104051;56;1136660;-79
2023/04/01 01:45:58;;;;;;;3.77;3.43;;;;;;;8.94;100.00;98702.39;5112094;56;1136690;-79
2023/04/01 01:51:06;;;;;;;3.83;3.53;;;;;;;8.93;100.00;98705.52;5171213;55;1137139;-78
2023/04/01 01:56:13;;;;;;;5.12;4.08;;;;;;;8.92;100.00;98698.59;5206121;55;1136667;-79
2023/04/01 02:01:27;;;;;;;4.20;3.87;;;;;;;8.91;100.00;98698.73;5185647;55;1136863;-79
2023/04/01 02:06:38;;;;;;;4.97;4.47;;;;;;;8.90;100.00;98701.03;5104987;55;1136807;-79
2023/04/01 02:11:50;;;;;;;4.45;4.05;;;;;;;8.91;100.00;98702.70;5030458;56;1136771;-77
2023/04/01 02:17:21;;;;;;;4.63;4.27;;;;;;;8.91;100.00;98703.52;5099387;56;1136582;-77
2023/04/01 02:22:35;;;;;;;4.22;3.90;;;;;;;8.89;100.00;98706.80;5082487;56;1136668;-78
2023/04/01 02:27:44;;;;;;;4.78;4.37;;;;;;;8.87;100.00;98700.84;5024781;56;1136719;-79
2023/04/01 02:32:50;;;;;;;4.33;3.93;;;;;;;8.85;100.00;98698.05;5125085;54;1136816;-76
2023/04/01 02:37:57;;;;;;;4.27;3.87;;;;;;;8.84;100.00;98695.08;5185708;55;1136914;-79
2023/04/01 02:43:03;;;;;;;5.47;4.30;;;;;;;8.83;100.00;98701.33;5186037;55;1136921;-79
2023/04/01 02:48:08;;;;;;;4.90;4.50;;;;;;;8.83;100.00;98702.64;5141378;55;1136702;-77
2023/04/01 02:53:14;;;;;;;4.83;4.43;;;;;;;8.84;100.00;98701.66;5045567;56;1136581;-77
2023/04/01 02:58:20;;;;;;;5.67;4.73;;;;;;;8.83;100.00;98711.87;4925901;57;1136775;-79
2023/04/01 03:03:26;;;;;;;5.00;4.60;;;;;;;8.83;100.00;98719.29;4935473;57;1136907;-78
2023/04/01 03:08:32;;;;;;;5.23;4.80;;;;;;;8.84;100.00;98720.95;4997261;57;1136909;-83
2023/04/01 03:13:38;;;;;;;5.23;4.83;;;;;;;8.86;100.00;98720.80;4972284;57;1136748;-79
2023/04/01 03:18:44;;;;;;;6.20;5.23;;;;;;;8.80;100.00;98716.95;4944418;57;1136728;-78
2023/04/01 03:23:50;;;;;;;6.83;5.30;;;;;;;8.78;100.00;98723.69;4958034;57;1136726;-79
2023/04/01 03:28:56;;;;;;;5.67;5.17;;;;;;;8.76;100.00;98725.64;4950842;58;1136732;-81
2023/04/01 03:34:02;;;;;;;6.07;5.17;;;;;;;8.77;100.00;98725.16;4956028;57;1136785;-80
2023/04/01 03:39:08;;;;;;;11.77;5.87;;;;;;;8.77;100.00;98727.79;5142560;55;1136697;-84
2023/04/01 03:44:16;;;;;;;6.73;6.03;;;;;;;8.80;100.00;98726.17;5122139;55;1138705;-79
2023/04/01 03:49:22;;;;;;;7.73;6.07;;;;;;;8.81;100.00;98724.70;5016601;56;1136692;-79
2023/04/01 03:54:27;;;;;;;6.17;5.57;;;;;;;8.85;100.00;98731.00;5016272;56;1137001;-81
2023/04/01 03:59:33;;;;;;;6.13;5.60;;;;;;;8.84;100.00;98728.03;5061263;56;1136774;-79
2023/04/01 04:04:39;;;;;;;7.03;5.92;;;;;;;8.84;100.00;98729.34;5054643;56;1136764;-81
2023/04/01 04:09:45;;;;;;;7.73;5.90;;;;;;;8.83;100.00;98746.14;5031270;56;1136773;-82
2023/04/01 04:14:51;;;;;;;6.37;5.80;;;;;;;8.85;100.00;98744.19;5116208;56;1136658;-80
2023/04/01 04:19:56;;;;;;;6.13;5.63;;;;;;;8.86;100.00;98745.32;5100369;56;1136694;-82
2023/04/01 04:25:02;;;;;;;6.60;6.00;;;;;;;8.84;100.00;98751.26;5101661;56;1136747;-80
2023/04/01 04:30:09;;;;;;;5.47;5.03;;;;;;;8.80;100.00;98753.36;5073711;56;1136691;-81
2023/04/01 04:35:16;;;;;;;6.27;5.53;;;;;;;8.79;100.00;98765.38;5102015;55;1136739;-77
2023/04/01 04:40:21;;;;;;;6.97;5.93;;;;;;;8.78;100.00;98762.39;5102072;55;1136621;-82
2023/04/01 04:45:27;;;;;;;7.77;7.03;;;;;;;8.77;100.00;98768.64;5102314;55;1136683;-82
2023/04/01 04:50:34;;;;;;;9.13;8.23;;;;;;;8.75;100.00;98764.84;5121897;55;1136711;-78
2023/04/01 04:55:51;;;;;;;6.97;6.28;;;;;;;8.77;100.00;98772.11;5100849;55;1136878;-79
2023/04/01 05:00:59;;;;;;;7.83;6.20;;;;;;;8.77;100.00;98776.55;5111242;55;1136760;-82
2023/04/01 05:06:08;;;;;;;10.13;5.70;;;;;;;8.76;100.00;98776.21;5186108;55;1136700;-82
2023/04/01 05:11:20;;;;;;;7.23;6.53;;;;;;;8.75;100.00;98783.77;5146156;56;1138832;-80
2023/04/01 05:16:27;;;;;;;7.10;6.50;;;;;;;8.76;100.00;98784.95;5102183;55;1136710;-81
2023/04/01 05:21:33;;;;;;;6.07;5.57;;;;;;;8.77;100.00;98790.56;5101994;55;1136894;-79
2023/04/01 05:26:39;;;;;;;7.60;6.90;;;;;;;8.79;100.00;98798.32;5064301;56;1136846;-79
2023/04/01 05:31:45;;;;;;;15.15;11.22;;;;;;;8.81;100.00;98801.16;5156933;56;1136910;-78
2023/04/01 05:36:51;;;;;;;9.47;7.57;;;;;;;8.85;100.00;98803.50;5156447;55;1141004;-80
2023/04/01 05:41:57;;;;;;;6.40;4.27;;;;;;;8.88;100.00;98802.69;5177302;56;1136583;-81
2023/04/01 05:47:05;;;;;;;3.67;3.37;;;;;;;8.88;100.00;98811.08;5156993;55;1136777;-80
2023/04/01 05:52:11;;;;;;;3.93;3.50;;;;;;;8.86;100.00;98803.31;5153868;55;1136751;-80
2023/04/01 05:57:16;;;;;;;9.83;6.00;;;;;;;8.86;100.00;98809.91;5091244;56;1136809;-81
2023/04/01 06:02:23;;;;;;;19.30;9.53;;;;;;;8.90;100.00;98817.03;5071223;56;1136944;-81
2023/04/01 06:07:30;;;;;;;8.00;6.00;;;;;;;8.94;100.00;98821.87;5111776;56;1138853;-80
2023/04/01 06:13:02;;;;;;;7.10;5.70;;;;;;;9.00;100.00;98827.87;5146938;56;1142311;-79
2023/04/01 06:18:33;;;;;;;6.77;5.33;;;;;;;9.08;100.00;98836.34;5152082;55;1136693;-78
2023/04/01 06:23:43;;;;;;;6.55;4.40;;;;;;;9.21;100.00;98839.42;5131201;55;1136817;-80
2023/04/01 06:29:16;;;;;;;6.07;4.87;;;;;;;9.22;100.00;98839.76;5086544;55;1136765;-79
2023/04/01 06:34:41;;;;;;;8.23;6.27;;;;;;;9.29;100.00;98840.83;5102083;56;1136689;-80
2023/04/01 06:39:57;;;;;;;8.98;7.47;;;;;;;9.29;100.00;98849.23;5066711;56;1137077;-81
2023/04/01 06:45:26;;;;;;;9.90;7.87;;;;;;;9.28;100.00;98854.16;5078299;55;1137077;-82
2023/04/01 06:51:26;;;;;;;13.22;8.95;;;;;;;9.34;100.00;98858.81;5066231;56;1136707;-81
2023/04/01 06:56:55;;;;;;;16.47;10.47;;;;;;;9.36;100.00;98866.92;5070907;55;1138787;-80
2023/04/01 07:02:19;;;;;;;13.83;10.13;;;;;;;9.27;100.00;98873.12;5064011;56;1141055;-79
2023/04/01 07:07:51;;;;;;;16.73;9.83;;;;;;;9.23;100.00;98874.39;5079651;56;1140928;-80
2023/04/01 07:13:01;;;;;;;16.13;10.60;;;;;;;9.21;100.00;98877.67;5037298;56;1138649;-79
2023/04/01 07:18:44;;;;;;;13.77;9.93;;;;;;;9.24;100.00;98891.88;5062760;56;1140805;-83
2023/04/01 07:23:52;;;;;;;24.43;15.83;;;;;;;9.29;100.00;98897.55;5134090;55;1145944;-79
2023/04/01 07:29:16;;;;;;;18.40;11.97;;;;;;;9.30;100.00;98904.48;5062331;55;1140931;-78
2023/04/01 07:34:56;;;;;;;15.50;10.10;;;;;;;9.30;100.00;98912.39;5021267;56;1140861;-79
2023/04/01 07:40:13;;;;;;;16.67;8.90;;;;;;;9.26;100.00;98914.98;5066542;56;1141026;-76
2023/04/01 07:45:41;;;;;;;15.48;9.30;;;;;;;9.24;100.00;98924.02;5103840;56;1148544;-79
2023/04/01 07:51:13;;;;;;;15.57;8.33;;;;;;;9.26;100.00;98935.26;5108292;56;1138816;-81
2023/04/01 07:56:45;;;;;;;10.77;7.03;;;;;;;9.27;100.00;98939.56;5100660;56;1138750;-76
2023/04/01 08:02:36;;;;;;;15.08;9.25;;;;;;;9.25;100.00;98944.15;5100467;56;1138722;-75
2023/04/01 08:07:52;;;;;;;15.23;9.03;;;;;;;9.22;100.00;98952.35;5035938;56;1138809;-81
2023/04/01 08:13:18;;;;;;;22.03;10.80;;;;;;;9.21;100.00;98958.12;5044369;55;1138999;-80
2023/04/01 08:19:00;;;;;;;21.33;11.57;;;;;;;9.24;100.00;98971.50;5156190;55;1140919;-82
2023/04/01 08:24:17;;;;;;;20.23;12.70;;;;;;;9.21;100.00;98977.90;5153415;55;1140853;-75
2023/04/01 08:29:37;;;;;;;22.57;14.43;;;;;;;9.25;100.00;98987.19;5015637;56;1140975;-76
2023/04/01 08:34:46;;;;;;;18.37;11.88;;;;;;;9.24;100.00;98988.66;4972638;57;1140810;-79
2023/04/01 08:39:58;;;;;;;22.83;10.87;;;;;;;9.18;100.00;98990.89;4996590;57;1140854;-79
2023/04/01 08:45:49;;;;;;;21.23;11.00;;;;;;;9.17;100.00;98995.83;5066583;55;1140884;-77
2023/04/01 08:51:28;;;;;;;24.83;14.07;;;;;;;9.12;100.00;99003.86;5014521;56;1140774;-75
2023/04/01 08:57:15;;;;;;;27.75;16.00;;;;;;;9.07;100.00;99013.52;5091182;56;1140985;-78
2023/04/01 09:02:42;;;;;;;19.98;11.90;;;;;;;9.06;100.00;99027.67;5099091;56;1141235;-77
2023/04/01 09:08:14;;;;;;;24.47;13.65;;;;;;;9.05;100.00;99029.97;5076400;56;1141195;-79
2023/04/01 09:13:47;;;;;;;45.30;19.30;;;;;;;9.10;100.00;99032.17;5037801;56;1140946;-80
2023/04/01 09:19:21;;;;;;;40.90;16.93;;;;;;;9.08;100.00;99040.72;5051286;56;1141092;-82
2023/04/01 09:25:04;;;;;;;30.88;14.68;;;;;;;9.05;100.00;99043.16;5132141;56;1140850;-74
2023/04/01 09:30:35;;;;;;;27.63;15.07;;;;;;;8.95;100.00;99050.28;5020360;56;1140944;-80
2023/04/01 09:35:46;;;;;;;23.42;13.70;;;;;;;8.95;100.00;99059.52;5067873;56;1140915;-80
2023/04/01 09:41:04;;;;;;;24.80;11.20;;;;;;;8.87;100.00;99065.97;5030323;56;1140757;-80
2023/04/01 09:46:34;;;;;;;18.87;10.40;;;;;;;8.88;100.00;99072.08;5089380;56;1140993;-78
2023/04/01 09:52:06;;;;;;;18.00;10.27;;;;;;;8.93;100.00;99077.77;5155700;55;1141090;-82
2023/04/01 09:57:36;;;;;;;12.87;8.30;;;;;;;8.96;100.00;99090.67;5156473;55;1140893;-82
2023/04/01 10:03:17;;;;;;;13.03;9.13;;;;;;;8.98;100.00;99090.88;5155272;55;1138752;-79
2023/04/01 10:08:42;;;;;;;13.50;9.47;;;;;;;9.04;100.00;99094.72;4988216;56;1139022;-80
2023/04/01 10:14:16;;;;;;;16.73;10.88;;;;;;;9.05;100.00;99100.34;5019622;57;1138911;-81
2023/04/01 10:20:13;;;;;;;17.15;11.73;;;;;;;9.07;100.00;99106.30;4954669;58;1140996;-79
2023/04/01 10:25:51;;;;;;;19.70;13.00;;;;;;;9.07;100.00;99109.78;4981464;57;1140942;-77
2023/04/01 10:31:46;;;;;;;15.60;11.70;;;;;;;9.05;100.00;99109.57;4930713;57;1140973;-82
2023/04/01 10:36:57;;;;;;;15.87;10.73;;;;;;;9.03;100.00;99118.94;5010948;56;1140910;-78
2023/04/01 10:42:33;;;;;;;13.63;9.83;;;;;;;9.03;100.00;99122.06;5035882;57;1141056;-83
2023/04/01 10:48:20;;;;;;;18.30;10.33;;;;;;;9.08;100.00;99133.03;5049517;55;1138957;-81
2023/04/01 10:53:40;;;;;;;13.93;7.83;;;;;;;9.07;100.00;99140.11;5085356;55;1140903;-76
2023/04/01 10:59:31;;;;;;;14.53;8.53;;;;;;;9.06;100.00;99148.98;5044851;56;1138796;-78
2023/04/01 11:05:16;;;;;;;17.10;8.88;;;;;;;8.90;100.00;99152.70;5078835;56;1138719;-77
2023/04/01 11:11:11;;;;;;;18.27;11.20;;;;;;;8.77;100.00;99160.91;5047199;56;1138828;-76
2023/04/01 11:16:29;;;;;;;19.00;11.90;;;;;;;8.67;100.00;99165.86;5142398;55;1140913;-78
2023/04/01 11:22:04;;;;;;;18.17;11.12;;;;;;;8.59;100.00;99174.45;5068772;55;1140880;-79
2023/04/01 11:27:32;;;;;;;;;;;;;;;8.53;100.00;99175.50;5159581;55;1141040;-76
2023/04/01 11:33:02;;;;;;;18.17;9.30;;;;;;;8.48;100.00;99181.18;5120590;55;974094;-77
2023/04/01 11:38:29;;;;;;;11.53;7.43;;;;;;;8.53;100.00;99178.14;5087040;56;1136862;-76
2023/04/01 11:44:15;;;;;;;16.23;9.23;;;;;;;8.57;100.00;99184.29;5151379;55;1138709;-78
2023/04/01 11:49:58;;;;;;;9.87;5.70;;;;;;;8.60;100.00;99195.05;5096628;56;1138731;-75
2023/04/01 11:55:31;;;;;;;17.57;11.57;;;;;;;8.63;100.00;99198.24;5155328;55;1136755;-78
2023/04/01 12:01:28;;;;;;;14.85;8.98;;;;;;;8.64;100.00;99202.55;5156870;55;1140767;-78
2023/04/01 12:07:00;;;;;;;8.78;6.30;;;;;;;8.66;100.00;99214.27;5122540;55;1138856;-76
2023/04/01 12:12:32;;;;;;;11.87;7.77;;;;;;;8.75;100.00;99225.28;5064097;56;1136807;-79
2023/04/01 12:17:52;;;;;;;18.77;9.28;;;;;;;8.80;100.00;99227.03;4862467;58;1138832;-78
2023/04/01 12:23:14;;;;;;;12.33;8.00;;;;;;;8.80;100.00;99228.34;5086448;56;1138640;-76
2023/04/01 12:28:44;;;;;;;10.40;5.90;;;;;;;8.81;100.00;99232.66;5105489;56;1138734;-76
2023/04/01 12:34:03;;;;;;;13.15;7.62;;;;;;;8.77;100.00;99241.80;5123707;55;1138868;-75
2023/04/01 12:39:34;;;;;;;6.77;5.17;;;;;;;8.65;100.00;99256.09;5121630;55;1138941;-76
2023/04/01 12:45:06;;;;;;;15.30;8.27;;;;;;;8.63;100.00;99257.55;5122196;55;1136693;-77
2023/04/01 12:50:28;;;;;;;17.57;10.00;;;;;;;8.58;100.00;99265.02;5121290;55;1138742;-77
2023/04/01 12:55:40;;;;;;;12.82;7.83;;;;;;;8.54;100.00;99276.82;5125523;55;1141037;-78
2023/04/01 13:00:56;;;;;;;20.10;9.77;;;;;;;8.59;100.00;99280.34;5142120;55;1138706;-75
2023/04/01 13:06:23;;;;;;;13.83;8.43;;;;;;;8.60;100.00;99286.80;5047045;55;1138720;-80
2023/04/01 13:12:07;;;;;;;9.73;6.50;;;;;;;8.55;100.00;99294.78;5036416;55;1138785;-75
2023/04/01 13:17:21;;;;;;;38.92;15.78;;;;;;;8.39;100.00;99298.77;5029370;56;1136775;-77
2023/04/01 13:22:31;;;;;;;62.25;20.10;;;;;;;8.40;100.00;99308.83;5105978;55;1141009;-78
2023/04/01 13:27:45;;;;;;;26.97;16.57;;;;;;;8.45;100.00;99310.55;5178381;55;1141014;-75
2023/04/01 13:33:18;;;;;;;19.55;10.30;;;;;;;8.58;100.00;99314.25;5140209;55;1141140;-74
2023/04/01 13:38:42;;;;;;;19.80;11.03;;;;;;;8.58;100.00;99314.25;5098563;56;1140812;-77
2023/04/01 13:43:52;;;;;;;22.33;12.17;;;;;;;8.57;100.00;99312.59;5099005;56;1141013;-76
2023/04/01 13:49:33;;;;;;;12.20;7.17;;;;;;;8.54;100.00;99319.47;5197837;55;1140911;-75
2023/04/01 13:54:52;;;;;;;18.80;11.33;;;;;;;8.54;100.00;99326.06;5044770;56;1138872;-75
2023/04/01 14:00:21;;;;;;;13.60;7.10;;;;;;;8.54;100.00;99326.89;4955172;57;1140854;-75
2023/04/01 14:05:34;;;;;;;12.63;8.53;;;;;;;8.52;100.00;99337.21;4948839;57;1138793;-74
2023/04/01 14:10:53;;;;;;;12.90;8.23;;;;;;;8.49;100.00;99345.37;4989212;57;1138936;-80
2023/04/01 14:16:09;;;;;;;21.97;11.83;;;;;;;8.49;100.00;99348.02;4950115;56;1138916;-77
2023/04/01 14:21:29;;;;;;;61.50;29.13;;;;;;;8.51;100.00;99353.50;4917746;57;1140777;-76
2023/04/01 14:26:51;;;;;;;19.73;10.88;;;;;;;8.44;100.00;99358.47;4901321;58;1140978;-78
2023/04/01 14:32:29;;;;;;;56.70;24.82;;;;;;;8.34;100.00;99360.73;4917499;58;1140991;-77
2023/04/01 14:37:58;;;;;;;20.93;9.83;;;;;;;8.27;100.00;99355.59;4951339;57;1141012;-75
2023/04/01 14:43:08;;;;;;;21.13;9.63;;;;;;;8.27;100.00;99359.54;4930704;57;1138733;-78
2023/04/01 14:48:52;;;;;;;11.60;7.50;;;;;;;8.32;100.00;99356.91;4989944;57;1138749;-77
2023/04/01 14:54:22;;;;;;;10.43;7.03;;;;;;;8.44;100.00;99365.53;4891096;57;1139540;-76
2023/04/01 14:59:28;;;;;;;22.00;10.17;;;;;;;8.43;100.00;99362.06;4963010;57;1138802;-76
2023/04/01 15:05:01;;;;;;;18.57;6.92;;;;;;;8.37;100.00;99381.06;4851431;58;1141305;-74
2023/04/01 15:10:30;;;;;;;10.43;7.10;;;;;;;8.33;100.00;99383.59;4960087;58;1138778;-74
2023/04/01 15:16:08;;;;;;;13.47;8.00;;;;;;;8.39;100.00;99396.25;4941638;57;1138953;-75
2023/04/01 15:21:43;;;;;;;17.30;8.70;;;;;;;8.40;100.00;99404.48;4940627;57;1138769;-73
2023/04/01 15:27:13;;;;;;;11.88;7.20;;;;;;;8.39;100.00;99413.86;4882616;57;1138810;-76
2023/04/01 15:32:29;;;;;;;9.33;5.13;;;;;;;8.39;100.00;99419.13;4972706;57;1139055;-77
2023/04/01 15:38:09;;;;;;;13.73;8.30;;;;;;;8.25;100.00;99432.62;5064371;56;1136754;-77
2023/04/01 15:43:21;;;;;;;11.87;6.93;;;;;;;8.15;100.00;99437.81;5037712;55;1139166;-75
2023/04/01 15:48:48;;;;;;;12.17;6.87;;;;;;;8.09;100.00;99449.72;5113546;55;1138934;-74
2023/04/01 15:54:22;;;;;;;8.37;6.27;;;;;;;8.11;100.00;99454.83;5022074;57;1138864;-73
2023/04/01 16:00:26;;;;;;;9.57;5.90;;;;;;;8.09;100.00;99468.16;5056287;55;1136763;-77
2023/04/01 16:05:45;;;;;;;16.63;7.67;;;;;;;8.03;100.00;99480.50;5080295;55;1136684;-75
2023/04/01 16:11:40;;;;;;;10.07;6.37;;;;;;;8.03;100.00;99488.89;5102742;55;1138844;-75
2023/04/01 16:17:04;;;;;;;11.53;7.70;;;;;;;7.87;100.00;99505.59;5095937;55;1138929;-72
2023/04/01 16:22:35;;;;;;;10.23;6.33;;;;;;;7.74;100.00;99514.52;5064520;55;1138817;-74
2023/04/01 16:28:20;;;;;;;8.83;6.37;;;;;;;7.71;100.00;99519.18;5068004;55;1138861;-74
2023/04/01 16:33:30;;;;;;;;;;;;;;;7.71;100.00;99528.39;5095826;55;1136884;-73
2023/04/01 16:38:43;;;;;;;8.57;5.93;;;;;;;7.61;100.00;99532.27;5144866;55;974035;-77
2023/04/01 16:44:02;;;;;;;11.82;6.04;;;;;;;7.56;100.00;99551.52;4942607;57;1134916;-77
2023/04/01 16:49:33;;;;;;;8.60;5.03;;;;;;;7.51;100.00;99557.63;4889030;57;1139144;-73
2023/04/01 16:54:57;;;;;;;8.20;5.13;;;;;;;7.43;100.00;99570.57;4864648;58;1136722;-74
2023/04/01 17:00:33;;;;;;;8.77;5.47;;;;;;;7.37;100.00;99583.72;4850780;58;1136786;-77
2023/04/01 17:06:13;;;;;;;17.43;6.23;;;;;;;7.30;100.00;99585.66;4948518;55;1137041;-73
2023/04/01 17:11:41;;;;;;;8.03;4.00;;;;;;;7.20;100.00;99598.67;5060256;56;1138907;-75
2023/04/01 17:16:57;;;;;;;37.77;16.60;;;;;;;7.14;100.00;99611.00;5099380;56;1136758;-75
2023/04/01 17:22:43;;;;;;;20.95;10.55;;;;;;;7.08;100.00;99627.24;5098752;55;1141105;-76
2023/04/01 17:28:18;;;;;;;12.23;5.60;;;;;;;7.04;100.00;99635.00;5017099;57;1140868;-74
2023/04/01 17:33:47;;;;;;;14.05;6.90;;;;;;;6.95;100.00;99651.02;5034096;57;1139004;-72
2023/04/01 17:39:06;;;;;;;32.55;14.00;;;;;;;6.94;100.00;99659.02;5140504;55;1139116;-70
2023/04/01 17:44:46;;;;;;;54.03;22.97;;;;;;;6.86;100.00;99665.34;5170598;55;1140851;-73
2023/04/01 17:50:32;;;;;;;70.23;29.37;;;;;;;6.70;100.00;99677.02;5130157;55;1140943;-81
2023/04/01 17:56:03;;;;;;;37.83;16.47;;;;;;;6.69;100.00;99685.00;5048563;55;1140833;-76
2023/04/01 18:01:22;;;;;;;23.10;8.90;;;;;;;6.63;100.00;99688.92;5070195;56;1140899;-78
2023/04/01 18:06:44;;;;;;;5.03;4.10;;;;;;;6.57;100.00;99699.88;5072126;56;1136851;-77
2023/04/01 18:12:22;;;;;;;25.17;10.43;;;;;;;6.51;100.00;99706.07;5090338;55;1146486;-76
2023/04/01 18:17:49;;;;;;;25.88;11.12;;;;;;;6.58;100.00;99717.31;5057740;56;1140906;-77
2023/04/01 18:23:05;;;;;;;18.80;9.13;;;;;;;6.57;100.00;99728.77;5080934;56;1141000;-78
2023/04/01 18:28:32;;;;;;;15.07;6.57;;;;;;;6.42;100.00;99735.62;5130220;55;1138752;-76
2023/04/01 18:34:21;;;;;;;12.57;4.83;;;;;;;6.33;100.00;99740.61;5128608;56;1138735;-78
2023/04/01 18:39:43;;;;;;;7.40;4.30;;;;;;;6.30;100.00;99750.02;5145501;55;1138788;-77
2023/04/01 18:45:13;;;;;;;9.17;5.43;;;;;;;6.29;100.00;99761.46;5155597;55;1136700;-77
2023/04/01 18:50:52;;;;;;;10.60;5.90;;;;;;;6.22;100.00;99767.28;5082110;56;1136742;-75
2023/04/01 18:56:13;;;;;;;5.22;3.65;;;;;;;6.20;100.00;99775.27;5125383;55;1138825;-76
2023/04/01 19:01:38;;;;;;;17.53;8.03;;;;;;;6.19;100.00;99779.31;5160662;54;1136515;-77
2023/04/01 19:06:48;;;;;;;5.93;4.37;;;;;;;6.20;100.00;99789.70;5156954;55;1138959;-83
2023/04/01 19:12:10;;;;;;;12.68;6.60;;;;;;;6.15;100.00;99793.13;5152056;55;1136714;-78
2023/04/01 19:17:40;;;;;;;17.83;8.87;;;;;;;6.13;100.00;99791.55;5090508;55;1136755;-75
2023/04/01 19:23:23;;;;;;;8.28;5.66;;;;;;;6.09;100.00;99794.05;5132700;55;1138750;-79
2023/04/01 19:28:48;;;;;;;4.87;3.13;;;;;;;5.98;100.00;99804.80;5111615;56;1136654;-80
2023/04/01 19:34:15;;;;;;;3.13;2.83;;;;;;;5.93;100.00;99810.03;5117321;55;1136606;-76
2023/04/01 19:40:10;;;;;;;5.77;3.83;;;;;;;5.89;100.00;99821.20;5122151;55;1134705;-78
2023/04/01 19:45:50;;;;;;;8.80;4.00;;;;;;;5.87;100.00;99828.78;5034167;56;1136781;-79
2023/04/01 19:51:12;;;;;;;7.80;5.40;;;;;;;5.79;100.00;99839.82;5101250;56;1136654;-76
2023/04/01 19:56:26;;;;;;;6.33;3.60;;;;;;;5.68;100.00;99848.03;5140129;55;1134839;-79
2023/04/01 20:02:15;;;;;;;4.87;3.20;;;;;;;5.64;100.00;99853.52;5037351;56;1136804;-78
2023/04/01 20:07:32;;;;;;;8.23;4.43;;;;;;;5.66;100.00;99858.63;5077576;56;1136624;-77
2023/04/01 20:13:06;;;;;;;8.37;4.53;;;;;;;5.59;100.00;99873.12;5037594;56;1134730;-76
2023/04/01 20:18:40;;;;;;;5.03;3.35;;;;;;;5.59;100.00;99881.83;5073140;55;1136830;-78
2023/04/01 20:23:57;;;;;;;;;;;;;;;5.60;100.00;99891.38;5104754;55;1142116;-75
2023/04/01 20:29:52;;;;;;;6.78;4.37;;;;;;;5.59;100.00;99896.73;5043630;57;972102;-81
2023/04/01 20:35:19;;;;;;;8.77;5.00;;;;;;;5.47;100.00;99907.56;5022729;57;1132622;-80
2023/04/01 20:40:44;;;;;;;8.80;5.43;;;;;;;5.42;100.00;99917.52;4974435;57;1136732;-77
2023/04/01 20:46:16;;;;;;;8.10;5.27;;;;;;;5.35;100.00;99926.70;5027944;56;1136882;-78
2023/04/01 20:51:35;;;;;;;10.50;5.13;;;;;;;5.22;100.00;99931.08;4971464;57;1134732;-77
2023/04/01 20:57:18;;;;;;;10.17;6.20;;;;;;;5.23;100.00;99936.22;5016383;57;1138763;-80
2023/04/01 21:02:58;;;;;;;7.67;6.10;;;;;;;5.14;100.00;99943.38;4997744;56;1138948;-77
2023/04/01 21:08:15;;;;;;;10.80;6.67;;;;;;;5.09;100.00;99952.47;5017432;56;1134515;-78
2023/04/01 21:14:01;;;;;;;9.57;5.93;;;;;;;5.08;100.00;99953.41;5091604;56;1136865;-78
2023/04/01 21:19:29;;;;;;;10.97;6.17;;;;;;;5.08;100.00;99959.95;5037390;56;1134646;-79
2023/04/01 21:25:07;;;;;;;13.80;7.10;;;;;;;4.98;100.00;99962.33;5068522;56;1136773;-76
2023/04/01 21:30:50;;;;;;;10.05;4.95;;;;;;;4.92;100.00;99975.34;5016666;56;1136628;-77
2023/04/01 21:36:00;;;;;;;11.37;5.87;;;;;;;4.83;100.00;99979.86;5024595;56;1136798;-76
2023/04/01 21:41:30;;;;;;;10.13;5.70;;;;;;;4.90;100.00;99996.02;5118377;56;1138933;-81
2023/04/01 21:47:17;;;;;;;7.80;4.20;;;;;;;4.90;100.00;99998.64;5098380;56;1139081;-77
2023/04/01 21:53:01;;;;;;;12.23;5.40;;;;;;;4.90;100.00;99998.64;5098696;56;1134747;-80
2023/04/01 21:58:50;;;;;;;16.15;5.33;;;;;;;4.84;100.00;100018.23;5098336;56;1136671;-76
2023/04/01 22:04:17;;;;;;;8.30;4.00;;;;;;;4.71;100.00;100019.08;5044631;56;1138908;-79
2023/04/01 22:09:37;;;;;;;6.27;3.90;;;;;;;4.69;100.00;100021.79;4855694;58;1136818;-79
2023/04/01 22:14:56;;;;;;;8.20;3.50;;;;;;;4.65;100.00;100032.07;4898316;58;1136766;-77
2023/04/01 22:20:19;;;;;;;7.40;4.33;;;;;;;4.61;100.00;100027.95;4883256;57;1136758;-79
2023/04/01 22:25:39;;;;;;;6.03;3.60;;;;;;;4.58;100.00;100038.63;4934461;56;1136821;-78
2023/04/01 22:30:55;;;;;;;9.37;5.50;;;;;;;4.60;100.00;100045.44;5067614;56;1138849;-78
2023/04/01 22:36:25;;;;;;;7.42;4.28;;;;;;;4.52;100.00;100056.86;5015477;57;1136659;-79
2023/04/01 22:42:13;;;;;;;6.67;4.07;;;;;;;4.51;100.00;100052.55;5017207;57;1136704;-77
2023/04/01 22:47:40;;;;;;;5.37;3.77;;;;;;;4.45;100.00;100059.45;5070190;55;1136926;-80
2023/04/01 22:53:03;;;;;;;5.73;3.40;;;;;;;4.44;100.00;100069.55;5109132;55;1136669;-77
2023/04/01 22:58:18;;;;;;;6.03;4.20;;;;;;;4.47;100.00;100077.23;5139702;55;1136655;-77
2023/04/01 23:03:33;;;;;;;7.57;3.97;;;;;;;4.46;100.00;100082.09;5059314;56;1136628;-79
2023/04/01 23:09:01;;;;;;;7.70;4.20;;;;;;;4.44;100.00;100084.41;5016768;56;1136644;-78
2023/04/01 23:14:31;;;;;;;10.45;4.45;;;;;;;4.43;100.00;100086.19;5074285;56;1136616;-78
2023/04/01 23:20:05;;;;;;;7.87;4.07;;;;;;;4.34;100.00;100095.91;5100518;56;1138740;-77
2023/04/01 23:25:46;;;;;;;8.75;4.35;;;;;;;4.34;100.00;100103.76;5059695;56;1136661;-79
2023/04/01 23:30:52;;;;;;;7.23;4.90;;;;;;;4.34;100.00;100105.07;5009729;56;1136829;-80
2023/04/01 23:36:16;;;;;;;7.50;4.97;;;;;;;4.30;100.00;100110.56;5116913;56;1136816;-81
2023/04/01 23:41:31;;;;;;;6.55;3.72;;;;;;;4.33;100.00;100119.55;5097478;56;1136680;-80
2023/04/01 23:46:39;;;;;;;8.57;4.43;;;;;;;4.39;100.00;100113.97;5140252;55;1137015;-79
2023/04/01 23:52:13;;;;;;;7.37;3.77;;;;;;;4.39;100.00;100125.29;5098907;56;1136674;-76
2023/04/01 23:57:26;;;;;;;5.62;3.75;;;;;;;4.34;100.00;100131.25;5208472;55;1136585;-79
